sensor_id;sensor_type;location;lat;lon;timestamp;pressure;altitude;pressure_sealevel;temperature
11926;BMP180;6022;48.768;18.608;2023-08-17T00:00:10;98710.13;;;24.10
11926;BMP180;6022;48.768;18.608;2023-08-17T00:02:41;98699.94;;;23.86
11926;BMP180;6022;48.768;18.608;2023-08-17T00:05:09;98691.53;;;23.84
11926;BMP180;6022;48.768;18.608;2023-08-17T00:07:37;98694.72;;;23.94
11926;BMP180;6022;48.768;18.608;2023-08-17T00:10:05;98705.66;;;24.04
11926;BMP180;6022;48.768;18.608;2023-08-17T00:12:32;98703.97;;;24.11
11926;BMP180;6022;48.768;18.608;2023-08-17T00:15:00;98710.44;;;24.15
11926;BMP180;6022;48.768;18.608;2023-08-17T00:17:32;98715.41;;;24.16
11926;BMP180;6022;48.768;18.608;2023-08-17T00:20:00;98714.78;;;24.14
11926;BMP180;6022;48.768;18.608;2023-08-17T00:22:27;98715.09;;;24.19
11926;BMP180;6022;48.768;18.608;2023-08-17T00:24:55;98714.06;;;24.06
11926;BMP180;6022;48.768;18.608;2023-08-17T00:27:22;98714.69;;;24.08
11926;BMP180;6022;48.768;18.608;2023-08-17T00:29:51;98712.09;;;24.08
11926;BMP180;6022;48.768;18.608;2023-08-17T00:32:18;98712.09;;;24.08
11926;BMP180;6022;48.768;18.608;2023-08-17T00:34:47;98706.22;;;23.91
11926;BMP180;6022;48.768;18.608;2023-08-17T00:37:17;98716.84;;;23.44
11926;BMP180;6022;48.768;18.608;2023-08-17T00:39:44;98717.66;;;23.45
11926;BMP180;6022;48.768;18.608;2023-08-17T00:42:11;98690.41;;;23.56
11926;BMP180;6022;48.768;18.608;2023-08-17T00:44:38;98700.44;;;23.59
11926;BMP180;6022;48.768;18.608;2023-08-17T00:47:05;98701.03;;;23.69
11926;BMP180;6022;48.768;18.608;2023-08-17T00:49:34;98701.03;;;23.69
11926;BMP180;6022;48.768;18.608;2023-08-17T00:52:02;98700.69;;;23.72
11926;BMP180;6022;48.768;18.608;2023-08-17T00:54:32;98697.72;;;23.53
11926;BMP180;6022;48.768;18.608;2023-08-17T00:57:01;98696.13;;;23.44
11926;BMP180;6022;48.768;18.608;2023-08-17T00:59:31;98710.47;;;23.54
11926;BMP180;6022;48.768;18.608;2023-08-17T01:02:08;98697.50;;;23.54
11926;BMP180;6022;48.768;18.608;2023-08-17T01:04:35;98698.84;;;23.51
11926;BMP180;6022;48.768;18.608;2023-08-17T01:07:03;98702.41;;;23.50
11926;BMP180;6022;48.768;18.608;2023-08-17T01:09:30;98696.00;;;23.38
11926;BMP180;6022;48.768;18.608;2023-08-17T01:12:13;98689.69;;;23.40
11926;BMP180;6022;48.768;18.608;2023-08-17T01:17:38;98689.47;;;23.19
11926;BMP180;6022;48.768;18.608;2023-08-17T01:20:08;98682.66;;;23.18
11926;BMP180;6022;48.768;18.608;2023-08-17T01:22:41;98675.69;;;23.19
11926;BMP180;6022;48.768;18.608;2023-08-17T01:25:12;98671.19;;;23.21
11926;BMP180;6022;48.768;18.608;2023-08-17T01:27:45;98667.28;;;23.25
11926;BMP180;6022;48.768;18.608;2023-08-17T01:30:17;98679.59;;;23.15
11926;BMP180;6022;48.768;18.608;2023-08-17T01:35:39;98678.28;;;23.19
11926;BMP180;6022;48.768;18.608;2023-08-17T01:38:17;98686.13;;;23.03
11926;BMP180;6022;48.768;18.608;2023-08-17T01:40:47;98686.44;;;23.00
11926;BMP180;6022;48.768;18.608;2023-08-17T01:43:16;98679.94;;;23.12
11926;BMP180;6022;48.768;18.608;2023-08-17T01:45:44;98680.59;;;23.14
11926;BMP180;6022;48.768;18.608;2023-08-17T01:48:11;98681.22;;;23.16
11926;BMP180;6022;48.768;18.608;2023-08-17T01:50:38;98673.94;;;23.19
11926;BMP180;6022;48.768;18.608;2023-08-17T01:53:06;98674.41;;;23.15
11926;BMP180;6022;48.768;18.608;2023-08-17T01:55:33;98685.31;;;23.03
11926;BMP180;6022;48.768;18.608;2023-08-17T01:58:02;98680.31;;;23.01
11926;BMP180;6022;48.768;18.608;2023-08-17T02:00:29;98676.09;;;23.00
11926;BMP180;6022;48.768;18.608;2023-08-17T02:02:57;98681.63;;;22.97
11926;BMP180;6022;48.768;18.608;2023-08-17T02:05:24;98673.22;;;22.95
11926;BMP180;6022;48.768;18.608;2023-08-17T02:07:52;98673.91;;;22.89
11926;BMP180;6022;48.768;18.608;2023-08-17T02:10:19;98685.03;;;22.82
11926;BMP180;6022;48.768;18.608;2023-08-17T02:12:50;98684.88;;;22.83
11926;BMP180;6022;48.768;18.608;2023-08-17T02:15:28;98684.41;;;22.80
11926;BMP180;6022;48.768;18.608;2023-08-17T02:17:56;98685.84;;;22.82
11926;BMP180;6022;48.768;18.608;2023-08-17T02:20:23;98682.63;;;22.80
11926;BMP180;6022;48.768;18.608;2023-08-17T02:22:51;98683.94;;;22.76
11926;BMP180;6022;48.768;18.608;2023-08-17T02:25:18;98680.38;;;22.70
11926;BMP180;6022;48.768;18.608;2023-08-17T02:27:46;98686.84;;;22.66
11926;BMP180;6022;48.768;18.608;2023-08-17T02:30:14;98682.34;;;22.60
11926;BMP180;6022;48.768;18.608;2023-08-17T02:32:42;98690.09;;;22.68
11926;BMP180;6022;48.768;18.608;2023-08-17T02:35:10;98689.41;;;22.74
11926;BMP180;6022;48.768;18.608;2023-08-17T02:37:37;98686.34;;;22.70
11926;BMP180;6022;48.768;18.608;2023-08-17T02:40:05;98690.09;;;22.68
11926;BMP180;6022;48.768;18.608;2023-08-17T02:42:32;98684.78;;;22.61
11926;BMP180;6022;48.768;18.608;2023-08-17T02:45:03;98685.41;;;22.55
11926;BMP180;6022;48.768;18.608;2023-08-17T02:47:30;98680.44;;;22.54
11926;BMP180;6022;48.768;18.608;2023-08-17T02:49:58;98676.53;;;22.58
11926;BMP180;6022;48.768;18.608;2023-08-17T02:52:25;98673.00;;;22.51
11926;BMP180;6022;48.768;18.608;2023-08-17T02:54:53;98661.38;;;22.47
11926;BMP180;6022;48.768;18.608;2023-08-17T02:57:21;98668.00;;;22.41
11926;BMP180;6022;48.768;18.608;2023-08-17T02:59:50;98670.09;;;22.38
11926;BMP180;6022;48.768;18.608;2023-08-17T03:02:17;98674.47;;;22.38
11926;BMP180;6022;48.768;18.608;2023-08-17T03:04:45;98673.66;;;22.37
11926;BMP180;6022;48.768;18.608;2023-08-17T03:07:12;98668.34;;;22.38
11926;BMP180;6022;48.768;18.608;2023-08-17T03:09:40;98672.69;;;22.30
11926;BMP180;6022;48.768;18.608;2023-08-17T03:12:07;98675.59;;;22.27
11926;BMP180;6022;48.768;18.608;2023-08-17T03:14:34;98668.84;;;22.26
11926;BMP180;6022;48.768;18.608;2023-08-17T03:17:01;98672.06;;;22.28
11926;BMP180;6022;48.768;18.608;2023-08-17T03:19:29;98670.13;;;22.22
11926;BMP180;6022;48.768;18.608;2023-08-17T03:21:56;98670.13;;;22.22
11926;BMP180;6022;48.768;18.608;2023-08-17T03:24:24;98670.94;;;22.23
11926;BMP180;6022;48.768;18.608;2023-08-17T03:26:51;98674.31;;;22.07
11926;BMP180;6022;48.768;18.608;2023-08-17T03:29:19;98684.16;;;22.12
11926;BMP180;6022;48.768;18.608;2023-08-17T03:31:46;98675.28;;;22.14
11926;BMP180;6022;48.768;18.608;2023-08-17T03:34:13;98675.28;;;22.14
11926;BMP180;6022;48.768;18.608;2023-08-17T03:36:41;98685.28;;;22.09
11926;BMP180;6022;48.768;18.608;2023-08-17T03:39:08;98692.41;;;22.15
11926;BMP180;6022;48.768;18.608;2023-08-17T03:41:36;98689.69;;;22.17
11926;BMP180;6022;48.768;18.608;2023-08-17T03:44:07;98697.28;;;22.18
11926;BMP180;6022;48.768;18.608;2023-08-17T03:46:36;98694.19;;;22.07
11926;BMP180;6022;48.768;18.608;2023-08-17T03:49:04;98695.28;;;22.04
11926;BMP180;6022;48.768;18.608;2023-08-17T03:51:35;98689.16;;;21.98
11926;BMP180;6022;48.768;18.608;2023-08-17T03:54:06;98701.75;;;22.08
11926;BMP180;6022;48.768;18.608;2023-08-17T03:56:36;98703.22;;;22.03
11926;BMP180;6022;48.768;18.608;2023-08-17T03:59:03;98695.94;;;21.98
11926;BMP180;6022;48.768;18.608;2023-08-17T04:01:31;98692.06;;;22.02
11926;BMP180;6022;48.768;18.608;2023-08-17T04:03:58;98684.31;;;21.95
11926;BMP180;6022;48.768;18.608;2023-08-17T04:06:26;98681.72;;;22.02
11926;BMP180;6022;48.768;18.608;2023-08-17T04:08:53;98692.06;;;21.95
11926;BMP180;6022;48.768;18.608;2023-08-17T04:11:21;98686.59;;;22.05
11926;BMP180;6022;48.768;18.608;2023-08-17T04:13:49;98686.88;;;22.10
11926;BMP180;6022;48.768;18.608;2023-08-17T04:16:16;98679.34;;;22.17
11926;BMP180;6022;48.768;18.608;2023-08-17T04:18:47;98682.56;;;22.19
11926;BMP180;6022;48.768;18.608;2023-08-17T04:21:14;98687.25;;;22.39
11926;BMP180;6022;48.768;18.608;2023-08-17T04:23:49;98694.94;;;22.71
11926;BMP180;6022;48.768;18.608;2023-08-17T04:26:16;98689.53;;;23.34
11926;BMP180;6022;48.768;18.608;2023-08-17T04:28:45;98690.78;;;23.98
11926;BMP180;6022;48.768;18.608;2023-08-17T04:31:13;98686.06;;;24.01
11926;BMP180;6022;48.768;18.608;2023-08-17T04:33:41;98687.03;;;23.78
11926;BMP180;6022;48.768;18.608;2023-08-17T04:36:09;98685.06;;;23.80
11926;BMP180;6022;48.768;18.608;2023-08-17T04:38:39;98688.38;;;23.74
11926;BMP180;6022;48.768;18.608;2023-08-17T04:41:09;98688.03;;;23.77
11926;BMP180;6022;48.768;18.608;2023-08-17T04:43:36;98694.13;;;23.84
11926;BMP180;6022;48.768;18.608;2023-08-17T04:46:04;98696.63;;;24.00
11926;BMP180;6022;48.768;18.608;2023-08-17T04:49:09;98687.97;;;23.85
11926;BMP180;6022;48.768;18.608;2023-08-17T04:51:43;98693.31;;;23.84
11926;BMP180;6022;48.768;18.608;2023-08-17T04:54:13;98694.97;;;24.43
11926;BMP180;6022;48.768;18.608;2023-08-17T04:56:43;98701.38;;;24.84
11926;BMP180;6022;48.768;18.608;2023-08-17T04:59:11;98702.22;;;25.48
11926;BMP180;6022;48.768;18.608;2023-08-17T05:01:39;98700.66;;;26.51
11926;BMP180;6022;48.768;18.608;2023-08-17T05:04:09;98694.19;;;27.47
11926;BMP180;6022;48.768;18.608;2023-08-17T05:06:48;98697.72;;;27.80
11926;BMP180;6022;48.768;18.608;2023-08-17T05:09:16;98687.63;;;27.64
11926;BMP180;6022;48.768;18.608;2023-08-17T05:11:47;98695.50;;;27.90
11926;BMP180;6022;48.768;18.608;2023-08-17T05:14:16;98690.81;;;26.80
11926;BMP180;6022;48.768;18.608;2023-08-17T05:16:46;98689.38;;;26.44
11926;BMP180;6022;48.768;18.608;2023-08-17T05:19:17;98687.78;;;25.81
11926;BMP180;6022;48.768;18.608;2023-08-17T05:21:44;98689.53;;;25.24
11926;BMP180;6022;48.768;18.608;2023-08-17T05:24:12;98690.13;;;24.40
11926;BMP180;6022;48.768;18.608;2023-08-17T05:27:01;98691.44;;;24.36
11926;BMP180;6022;48.768;18.608;2023-08-17T05:29:29;98693.41;;;24.12
11926;BMP180;6022;48.768;18.608;2023-08-17T05:32:05;98699.47;;;24.05
11926;BMP180;6022;48.768;18.608;2023-08-17T05:34:33;98695.44;;;24.02
11926;BMP180;6022;48.768;18.608;2023-08-17T05:37:09;98697.31;;;23.94
11926;BMP180;6022;48.768;18.608;2023-08-17T05:39:39;98698.03;;;24.02
11926;BMP180;6022;48.768;18.608;2023-08-17T05:42:11;98696.88;;;24.05
11926;BMP180;6022;48.768;18.608;2023-08-17T05:44:39;98700.94;;;24.07
11926;BMP180;6022;48.768;18.608;2023-08-17T05:47:09;98697.34;;;24.08
11926;BMP180;6022;48.768;18.608;2023-08-17T05:49:40;98702.97;;;24.12
11926;BMP180;6022;48.768;18.608;2023-08-17T05:52:07;98710.13;;;24.10
11926;BMP180;6022;48.768;18.608;2023-08-17T05:54:35;98709.66;;;24.06
11926;BMP180;6022;48.768;18.608;2023-08-17T05:57:03;98709.34;;;24.09
11926;BMP180;6022;48.768;18.608;2023-08-17T05:59:30;98708.06;;;24.05
11926;BMP180;6022;48.768;18.608;2023-08-17T06:02:00;98706.16;;;23.99
11926;BMP180;6022;48.768;18.608;2023-08-17T06:04:33;98706.34;;;23.98
11926;BMP180;6022;48.768;18.608;2023-08-17T06:07:00;98700.56;;;23.88
11926;BMP180;6022;48.768;18.608;2023-08-17T06:09:28;98706.84;;;23.71
11926;BMP180;6022;48.768;18.608;2023-08-17T06:11:55;98707.03;;;23.70
11926;BMP180;6022;48.768;18.608;2023-08-17T06:14:23;98711.06;;;23.72
11926;BMP180;6022;48.768;18.608;2023-08-17T06:16:51;98702.94;;;23.75
11926;BMP180;6022;48.768;18.608;2023-08-17T06:19:18;98709.09;;;23.74
11926;BMP180;6022;48.768;18.608;2023-08-17T06:21:46;98704.25;;;23.71
11926;BMP180;6022;48.768;18.608;2023-08-17T06:24:13;98699.59;;;23.67
11926;BMP180;6022;48.768;18.608;2023-08-17T06:26:40;98711.34;;;23.77
11926;BMP180;6022;48.768;18.608;2023-08-17T06:29:08;98709.78;;;23.68
11926;BMP180;6022;48.768;18.608;2023-08-17T06:31:36;98703.97;;;23.66
11926;BMP180;6022;48.768;18.608;2023-08-17T06:34:03;98703.16;;;23.66
11926;BMP180;6022;48.768;18.608;2023-08-17T06:36:32;98696.38;;;23.65
11926;BMP180;6022;48.768;18.608;2023-08-17T06:39:08;98700.13;;;23.62
11926;BMP180;6022;48.768;18.608;2023-08-17T06:41:40;98705.94;;;23.56
11926;BMP180;6022;48.768;18.608;2023-08-17T06:44:10;98702.06;;;23.52
11926;BMP180;6022;48.768;18.608;2023-08-17T06:46:38;98706.75;;;23.57
11926;BMP180;6022;48.768;18.608;2023-08-17T06:49:08;98704.03;;;23.58
11926;BMP180;6022;48.768;18.608;2023-08-17T06:51:35;98700.59;;;23.66
11926;BMP180;6022;48.768;18.608;2023-08-17T06:54:03;98710.41;;;23.70
11926;BMP180;6022;48.768;18.608;2023-08-17T06:56:31;98714.28;;;23.74
11926;BMP180;6022;48.768;18.608;2023-08-17T06:58:58;98711.63;;;23.82
11926;BMP180;6022;48.768;18.608;2023-08-17T07:01:25;98708.06;;;23.83
11926;BMP180;6022;48.768;18.608;2023-08-17T07:03:56;98708.53;;;23.87
11926;BMP180;6022;48.768;18.608;2023-08-17T07:06:27;98710.31;;;23.86
11926;BMP180;6022;48.768;18.608;2023-08-17T07:08:56;98720.88;;;23.85
11926;BMP180;6022;48.768;18.608;2023-08-17T07:11:30;98716.56;;;23.69
11926;BMP180;6022;48.768;18.608;2023-08-17T07:13:59;98719.28;;;23.76
11926;BMP180;6022;48.768;18.608;2023-08-17T07:16:27;98724.13;;;23.79
11926;BMP180;6022;48.768;18.608;2023-08-17T07:19:02;98724.75;;;23.81
11926;BMP180;6022;48.768;18.608;2023-08-17T07:21:32;98722.53;;;23.78
11926;BMP180;6022;48.768;18.608;2023-08-17T07:24:14;98732.72;;;23.79
11926;BMP180;6022;48.768;18.608;2023-08-17T07:26:48;98724.41;;;23.84
11926;BMP180;6022;48.768;18.608;2023-08-17T07:29:18;98720.50;;;23.88
11926;BMP180;6022;48.768;18.608;2023-08-17T07:31:46;98723.25;;;23.86
11926;BMP180;6022;48.768;18.608;2023-08-17T07:34:14;98723.41;;;23.92
11926;BMP180;6022;48.768;18.608;2023-08-17T07:36:45;98723.56;;;23.91
11926;BMP180;6022;48.768;18.608;2023-08-17T07:39:13;98715.16;;;23.89
11926;BMP180;6022;48.768;18.608;2023-08-17T07:41:40;98718.84;;;23.94
11926;BMP180;6022;48.768;18.608;2023-08-17T07:44:10;98713.13;;;23.99
11926;BMP180;6022;48.768;18.608;2023-08-17T07:46:38;98710.84;;;24.04
11926;BMP180;6022;48.768;18.608;2023-08-17T07:49:06;98714.38;;;24.03
11926;BMP180;6022;48.768;18.608;2023-08-17T07:51:53;98724.44;;;24.06
11926;BMP180;6022;48.768;18.608;2023-08-17T07:54:21;98722.47;;;24.08
11926;BMP180;6022;48.768;18.608;2023-08-17T07:56:48;98716.41;;;24.15
11926;BMP180;6022;48.768;18.608;2023-08-17T07:59:22;98727.25;;;24.19
11926;BMP180;6022;48.768;18.608;2023-08-17T08:01:52;98727.69;;;24.30
11926;BMP180;6022;48.768;18.608;2023-08-17T08:04:22;98729.72;;;24.34
11926;BMP180;6022;48.768;18.608;2023-08-17T08:06:49;98724.75;;;24.47
11926;BMP180;6022;48.768;18.608;2023-08-17T08:09:17;98725.03;;;24.52
11926;BMP180;6022;48.768;18.608;2023-08-17T08:11:44;98722.28;;;24.68
11926;BMP180;6022;48.768;18.608;2023-08-17T08:14:15;98725.34;;;24.86
11926;BMP180;6022;48.768;18.608;2023-08-17T08:16:42;98722.19;;;24.76
11926;BMP180;6022;48.768;18.608;2023-08-17T08:19:11;98725.31;;;24.57
11926;BMP180;6022;48.768;18.608;2023-08-17T08:21:41;98729.31;;;24.82
11926;BMP180;6022;48.768;18.608;2023-08-17T08:24:12;98726.03;;;24.80
11926;BMP180;6022;48.768;18.608;2023-08-17T08:26:53;98721.34;;;24.98
11926;BMP180;6022;48.768;18.608;2023-08-17T08:29:24;98719.28;;;25.07
11926;BMP180;6022;48.768;18.608;2023-08-17T08:31:54;98710.63;;;25.01
11926;BMP180;6022;48.768;18.608;2023-08-17T08:34:24;98705.78;;;25.12
11926;BMP180;6022;48.768;18.608;2023-08-17T08:37:02;98703.81;;;25.14
11926;BMP180;6022;48.768;18.608;2023-08-17T08:39:29;98700.94;;;25.23
11926;BMP180;6022;48.768;18.608;2023-08-17T08:42:03;98711.22;;;25.31
11926;BMP180;6022;48.768;18.608;2023-08-17T08:44:31;98702.13;;;25.42
11926;BMP180;6022;48.768;18.608;2023-08-17T08:47:11;98697.38;;;25.45
11926;BMP180;6022;48.768;18.608;2023-08-17T08:49:59;98694.66;;;25.53
11926;BMP180;6022;48.768;18.608;2023-08-17T08:52:53;98693.81;;;25.46
11926;BMP180;6022;48.768;18.608;2023-08-17T08:55:37;98696.50;;;25.38
11926;BMP180;6022;48.768;18.608;2023-08-17T08:58:18;98700.66;;;25.33
11926;BMP180;6022;48.768;18.608;2023-08-17T09:00:46;98693.31;;;25.22
11926;BMP180;6022;48.768;18.608;2023-08-17T09:03:17;98694.88;;;25.37
11926;BMP180;6022;48.768;18.608;2023-08-17T09:05:50;98692.56;;;25.42
11926;BMP180;6022;48.768;18.608;2023-08-17T09:08:27;98691.81;;;25.48
11926;BMP180;6022;48.768;18.608;2023-08-17T09:10:56;98684.81;;;25.63
11926;BMP180;6022;48.768;18.608;2023-08-17T09:13:24;98685.81;;;25.83
11926;BMP180;6022;48.768;18.608;2023-08-17T09:15:52;98681.94;;;25.93
11926;BMP180;6022;48.768;18.608;2023-08-17T09:18:19;98684.03;;;26.04
11926;BMP180;6022;48.768;18.608;2023-08-17T09:20:47;98672.19;;;26.01
11926;BMP180;6022;48.768;18.608;2023-08-17T09:23:18;98683.91;;;26.12
11926;BMP180;6022;48.768;18.608;2023-08-17T09:25:48;98673.06;;;26.29
11926;BMP180;6022;48.768;18.608;2023-08-17T09:28:19;98670.75;;;26.40
11926;BMP180;6022;48.768;18.608;2023-08-17T09:30:56;98675.47;;;26.58
11926;BMP180;6022;48.768;18.608;2023-08-17T09:33:30;98669.00;;;26.81
11926;BMP180;6022;48.768;18.608;2023-08-17T09:35:59;98665.91;;;26.98
11926;BMP180;6022;48.768;18.608;2023-08-17T09:38:28;98667.81;;;27.17
11926;BMP180;6022;48.768;18.608;2023-08-17T09:40:57;98664.47;;;27.36
11926;BMP180;6022;48.768;18.608;2023-08-17T09:43:25;98662.66;;;27.30
11926;BMP180;6022;48.768;18.608;2023-08-17T09:45:58;98661.38;;;27.13
11926;BMP180;6022;48.768;18.608;2023-08-17T09:48:26;98652.28;;;26.96
11926;BMP180;6022;48.768;18.608;2023-08-17T09:50:59;98660.50;;;26.66
11926;BMP180;6022;48.768;18.608;2023-08-17T09:53:34;98649.44;;;26.85
11926;BMP180;6022;48.768;18.608;2023-08-17T09:56:05;98646.94;;;27.10
11926;BMP180;6022;48.768;18.608;2023-08-17T09:58:35;98652.22;;;27.36
11926;BMP180;6022;48.768;18.608;2023-08-17T10:01:04;98662.53;;;27.50
11926;BMP180;6022;48.768;18.608;2023-08-17T10:03:34;98659.44;;;27.28
11926;BMP180;6022;48.768;18.608;2023-08-17T10:06:09;98668.59;;;27.17
11926;BMP180;6022;48.768;18.608;2023-08-17T10:08:43;98657.75;;;27.14
11926;BMP180;6022;48.768;18.608;2023-08-17T10:11:19;98650.19;;;27.25
11926;BMP180;6022;48.768;18.608;2023-08-17T10:13:53;98659.72;;;27.45
11926;BMP180;6022;48.768;18.608;2023-08-17T10:16:27;98648.53;;;27.64
11926;BMP180;6022;48.768;18.608;2023-08-17T10:19:05;98656.19;;;27.72
11926;BMP180;6022;48.768;18.608;2023-08-17T10:21:44;98654.19;;;27.93
11926;BMP180;6022;48.768;18.608;2023-08-17T10:24:13;98652.41;;;28.07
11926;BMP180;6022;48.768;18.608;2023-08-17T10:26:43;98655.00;;;28.00
11926;BMP180;6022;48.768;18.608;2023-08-17T10:29:12;98651.97;;;27.84
11926;BMP180;6022;48.768;18.608;2023-08-17T10:31:48;98645.94;;;27.77
11926;BMP180;6022;48.768;18.608;2023-08-17T10:34:16;98647.56;;;27.97
11926;BMP180;6022;48.768;18.608;2023-08-17T10:36:45;98631.34;;;28.27
11926;BMP180;6022;48.768;18.608;2023-08-17T10:39:23;98627.31;;;28.31
11926;BMP180;6022;48.768;18.608;2023-08-17T10:41:57;98628.50;;;28.35
11926;BMP180;6022;48.768;18.608;2023-08-17T10:47:25;98626.03;;;28.79
11926;BMP180;6022;48.768;18.608;2023-08-17T10:50:04;98622.72;;;29.02
11926;BMP180;6022;48.768;18.608;2023-08-17T10:52:34;98619.97;;;29.34
11926;BMP180;6022;48.768;18.608;2023-08-17T10:55:05;98610.69;;;29.45
11926;BMP180;6022;48.768;18.608;2023-08-17T10:57:40;98603.66;;;29.69
11926;BMP180;6022;48.768;18.608;2023-08-17T11:00:15;98605.78;;;30.34
11926;BMP180;6022;48.768;18.608;2023-08-17T11:02:57;98605.66;;;30.46
11926;BMP180;6022;48.768;18.608;2023-08-17T11:05:44;98600.72;;;31.10
11926;BMP180;6022;48.768;18.608;2023-08-17T11:08:34;98610.91;;;30.46
11926;BMP180;6022;48.768;18.608;2023-08-17T11:11:14;98612.47;;;30.30
11926;BMP180;6022;48.768;18.608;2023-08-17T11:13:44;98605.16;;;30.14
11926;BMP180;6022;48.768;18.608;2023-08-17T11:16:14;98597.50;;;29.88
11926;BMP180;6022;48.768;18.608;2023-08-17T11:18:46;98604.94;;;29.61
11926;BMP180;6022;48.768;18.608;2023-08-17T11:21:16;98606.13;;;29.34
11926;BMP180;6022;48.768;18.608;2023-08-17T11:23:46;98603.31;;;29.29
11926;BMP180;6022;48.768;18.608;2023-08-17T11:26:18;98616.47;;;29.16
11926;BMP180;6022;48.768;18.608;2023-08-17T11:28:46;98606.66;;;28.99
11926;BMP180;6022;48.768;18.608;2023-08-17T11:31:14;98611.28;;;29.03
11926;BMP180;6022;48.768;18.608;2023-08-17T11:33:43;98618.72;;;28.93
11926;BMP180;6022;48.768;18.608;2023-08-17T11:36:14;98618.41;;;28.77
11926;BMP180;6022;48.768;18.608;2023-08-17T11:38:43;98608.78;;;28.71
11926;BMP180;6022;48.768;18.608;2023-08-17T11:41:11;98612.41;;;28.70
11926;BMP180;6022;48.768;18.608;2023-08-17T11:43:43;98613.19;;;28.71
11926;BMP180;6022;48.768;18.608;2023-08-17T11:46:11;98619.25;;;28.52
11926;BMP180;6022;48.768;18.608;2023-08-17T11:48:39;98614.03;;;28.39
11926;BMP180;6022;48.768;18.608;2023-08-17T11:51:06;98609.41;;;28.60
11926;BMP180;6022;48.768;18.608;2023-08-17T11:53:35;98613.38;;;28.69
11926;BMP180;6022;48.768;18.608;2023-08-17T11:56:04;98615.63;;;28.53
11926;BMP180;6022;48.768;18.608;2023-08-17T11:58:43;98614.81;;;28.72
11926;BMP180;6022;48.768;18.608;2023-08-17T12:01:12;98605.00;;;28.54
11926;BMP180;6022;48.768;18.608;2023-08-17T12:03:41;98594.81;;;28.14
11926;BMP180;6022;48.768;18.608;2023-08-17T12:06:10;98605.81;;;28.29
11926;BMP180;6022;48.768;18.608;2023-08-17T12:08:45;98596.22;;;28.23
11926;BMP180;6022;48.768;18.608;2023-08-17T12:11:16;98594.81;;;28.02
11926;BMP180;6022;48.768;18.608;2023-08-17T12:13:53;98587.59;;;28.23
11926;BMP180;6022;48.768;18.608;2023-08-17T12:16:22;98579.13;;;28.27
11926;BMP180;6022;48.768;18.608;2023-08-17T12:18:56;98576.47;;;28.53
11926;BMP180;6022;48.768;18.608;2023-08-17T12:21:24;98577.44;;;28.71
11926;BMP180;6022;48.768;18.608;2023-08-17T12:27:31;98572.66;;;28.43
11926;BMP180;6022;48.768;18.608;2023-08-17T12:30:02;98575.88;;;28.51
11926;BMP180;6022;48.768;18.608;2023-08-17T12:32:35;98571.69;;;28.37
11926;BMP180;6022;48.768;18.608;2023-08-17T12:35:28;98565.81;;;28.61
11926;BMP180;6022;48.768;18.608;2023-08-17T12:38:02;98575.44;;;28.73
11926;BMP180;6022;48.768;18.608;2023-08-17T12:40:45;98571.53;;;28.19
11926;BMP180;6022;48.768;18.608;2023-08-17T12:43:13;98574.94;;;28.14
11926;BMP180;6022;48.768;18.608;2023-08-17T12:45:54;98571.94;;;28.23
11926;BMP180;6022;48.768;18.608;2023-08-17T12:48:27;98566.69;;;28.16
11926;BMP180;6022;48.768;18.608;2023-08-17T12:51:11;98560.47;;;28.11
11926;BMP180;6022;48.768;18.608;2023-08-17T12:53:44;98556.66;;;28.20
11926;BMP180;6022;48.768;18.608;2023-08-17T12:56:19;98565.50;;;28.25
11926;BMP180;6022;48.768;18.608;2023-08-17T12:58:49;98572.31;;;28.20
11926;BMP180;6022;48.768;18.608;2023-08-17T13:01:16;98563.09;;;27.79
11926;BMP180;6022;48.768;18.608;2023-08-17T13:03:46;98562.50;;;27.77
11926;BMP180;6022;48.768;18.608;2023-08-17T13:06:17;98553.69;;;27.78
11926;BMP180;6022;48.768;18.608;2023-08-17T13:08:45;98557.47;;;27.69
11926;BMP180;6022;48.768;18.608;2023-08-17T13:11:13;98546.63;;;27.53
11926;BMP180;6022;48.768;18.608;2023-08-17T13:13:45;98563.06;;;27.47
11926;BMP180;6022;48.768;18.608;2023-08-17T13:16:14;98558.22;;;27.37
11926;BMP180;6022;48.768;18.608;2023-08-17T13:18:45;98545.44;;;27.62
11926;BMP180;6022;48.768;18.608;2023-08-17T13:21:18;98552.25;;;27.69
11926;BMP180;6022;48.768;18.608;2023-08-17T13:23:49;98543.84;;;27.74
11926;BMP180;6022;48.768;18.608;2023-08-17T13:26:21;98549.00;;;27.41
11926;BMP180;6022;48.768;18.608;2023-08-17T13:28:59;98535.91;;;27.16
11926;BMP180;6022;48.768;18.608;2023-08-17T13:31:26;98541.72;;;27.11
11926;BMP180;6022;48.768;18.608;2023-08-17T13:33:56;98537.53;;;27.10
11926;BMP180;6022;48.768;18.608;2023-08-17T13:36:23;98532.72;;;27.07
11926;BMP180;6022;48.768;18.608;2023-08-17T13:38:50;98534.06;;;26.97
11926;BMP180;6022;48.768;18.608;2023-08-17T13:41:18;98532.09;;;27.12
11926;BMP180;6022;48.768;18.608;2023-08-17T13:43:47;98531.53;;;27.23
11926;BMP180;6022;48.768;18.608;2023-08-17T13:46:15;98532.94;;;27.19
11926;BMP180;6022;48.768;18.608;2023-08-17T13:48:42;98538.53;;;27.16
11926;BMP180;6022;48.768;18.608;2023-08-17T13:51:09;98522.91;;;27.16
11926;BMP180;6022;48.768;18.608;2023-08-17T13:53:39;98532.31;;;27.17
11926;BMP180;6022;48.768;18.608;2023-08-17T13:56:07;98526.69;;;27.07
11926;BMP180;6022;48.768;18.608;2023-08-17T13:58:35;98530.13;;;27.27
11926;BMP180;6022;48.768;18.608;2023-08-17T14:01:03;98524.13;;;27.33
11926;BMP180;6022;48.768;18.608;2023-08-17T14:03:30;98532.53;;;27.15
11926;BMP180;6022;48.768;18.608;2023-08-17T14:05:58;98532.28;;;27.04
11926;BMP180;6022;48.768;18.608;2023-08-17T14:08:26;98540.75;;;27.12
11926;BMP180;6022;48.768;18.608;2023-08-17T14:10:53;98523.72;;;27.16
11926;BMP180;6022;48.768;18.608;2023-08-17T14:13:21;98534.75;;;27.25
11926;BMP180;6022;48.768;18.608;2023-08-17T14:15:48;98531.94;;;27.20
11926;BMP180;6022;48.768;18.608;2023-08-17T14:18:16;98530.94;;;27.14
11926;BMP180;6022;48.768;18.608;2023-08-17T14:20:43;98537.72;;;27.09
11926;BMP180;6022;48.768;18.608;2023-08-17T14:23:10;98533.69;;;27.00
11926;BMP180;6022;48.768;18.608;2023-08-17T14:25:37;98536.13;;;27.14
11926;BMP180;6022;48.768;18.608;2023-08-17T14:28:05;98547.75;;;27.12
11926;BMP180;6022;48.768;18.608;2023-08-17T14:30:35;98544.72;;;27.02
11926;BMP180;6022;48.768;18.608;2023-08-17T14:33:03;98543.13;;;27.01
11926;BMP180;6022;48.768;18.608;2023-08-17T14:35:31;98545.69;;;26.95
11926;BMP180;6022;48.768;18.608;2023-08-17T14:37:58;98539.25;;;26.84